sensor_id;sensor_type;location;lat;lon;timestamp;P1;durP1;ratioP1;P2;durP2;ratioP2
59271;SDS011;45043;51.068;7.026;2023-04-06T00:01:56;13.10;;;11.07;;
59271;SDS011;45043;51.068;7.026;2023-04-06T00:04:57;13.70;;;11.30;;
59271;SDS011;45043;51.068;7.026;2023-04-06T00:07:57;12.83;;;11.37;;
59271;SDS011;45043;51.068;7.026;2023-04-06T00:10:58;13.70;;;11.53;;
59271;SDS011;45043;51.068;7.026;2023-04-06T00:13:59;14.13;;;11.30;;
59271;SDS011;45043;51.068;7.026;2023-04-06T00:16:59;14.23;;;11.40;;
59271;SDS011;45043;51.068;7.026;2023-04-06T00:20:00;13.07;;;11.40;;
59271;SDS011;45043;51.068;7.026;2023-04-06T00:23:00;16.07;;;12.17;;
59271;SDS011;45043;51.068;7.026;2023-04-06T00:26:01;13.20;;;11.40;;
59271;SDS011;45043;51.068;7.026;2023-04-06T00:29:01;14.03;;;12.57;;
59271;SDS011;45043;51.068;7.026;2023-04-06T00:32:03;12.80;;;11.50;;
59271;SDS011;45043;51.068;7.026;2023-04-06T00:35:03;14.83;;;12.47;;
59271;SDS011;45043;51.068;7.026;2023-04-06T00:38:04;16.60;;;12.60;;
59271;SDS011;45043;51.068;7.026;2023-04-06T00:41:05;17.80;;;12.37;;
59271;SDS011;45043;51.068;7.026;2023-04-06T00:44:06;13.80;;;12.17;;
59271;SDS011;45043;51.068;7.026;2023-04-06T00:47:07;13.83;;;11.67;;
59271;SDS011;45043;51.068;7.026;2023-04-06T00:50:07;14.00;;;12.20;;
59271;SDS011;45043;51.068;7.026;2023-04-06T00:53:09;14.23;;;11.93;;
59271;SDS011;45043;51.068;7.026;2023-04-06T00:56:09;16.97;;;12.50;;
59271;SDS011;45043;51.068;7.026;2023-04-06T00:59:21;13.40;;;11.17;;
59271;SDS011;45043;51.068;7.026;2023-04-06T01:02:23;14.00;;;12.53;;
59271;SDS011;45043;51.068;7.026;2023-04-06T01:05:26;13.77;;;11.97;;
59271;SDS011;45043;51.068;7.026;2023-04-06T01:08:31;13.27;;;11.20;;
59271;SDS011;45043;51.068;7.026;2023-04-06T01:11:45;14.67;;;12.37;;
59271;SDS011;45043;51.068;7.026;2023-04-06T01:14:50;13.13;;;11.03;;
59271;SDS011;45043;51.068;7.026;2023-04-06T01:17:51;15.73;;;11.97;;
59271;SDS011;45043;51.068;7.026;2023-04-06T01:20:52;15.17;;;11.57;;
59271;SDS011;45043;51.068;7.026;2023-04-06T01:23:54;14.07;;;11.70;;
59271;SDS011;45043;51.068;7.026;2023-04-06T01:27:01;12.30;;;10.70;;
59271;SDS011;45043;51.068;7.026;2023-04-06T01:30:11;12.20;;;10.90;;
59271;SDS011;45043;51.068;7.026;2023-04-06T01:33:25;13.77;;;11.20;;
59271;SDS011;45043;51.068;7.026;2023-04-06T01:36:38;13.00;;;10.70;;
59271;SDS011;45043;51.068;7.026;2023-04-06T01:39:53;14.83;;;10.67;;
59271;SDS011;45043;51.068;7.026;2023-04-06T01:43:03;14.37;;;10.70;;
59271;SDS011;45043;51.068;7.026;2023-04-06T01:46:10;12.33;;;10.47;;
59271;SDS011;45043;51.068;7.026;2023-04-06T01:49:14;12.90;;;11.33;;
59271;SDS011;45043;51.068;7.026;2023-04-06T01:52:15;11.40;;;10.30;;
59271;SDS011;45043;51.068;7.026;2023-04-06T01:55:21;14.23;;;10.37;;
59271;SDS011;45043;51.068;7.026;2023-04-06T01:58:49;13.17;;;10.07;;
59271;SDS011;45043;51.068;7.026;2023-04-06T02:01:50;12.53;;;10.80;;
59271;SDS011;45043;51.068;7.026;2023-04-06T02:04:53;13.10;;;9.87;;
59271;SDS011;45043;51.068;7.026;2023-04-06T02:07:54;12.63;;;9.43;;
59271;SDS011;45043;51.068;7.026;2023-04-06T02:11:03;11.43;;;9.93;;
59271;SDS011;45043;51.068;7.026;2023-04-06T02:14:08;13.13;;;10.70;;
59271;SDS011;45043;51.068;7.026;2023-04-06T02:17:15;12.60;;;9.60;;
59271;SDS011;45043;51.068;7.026;2023-04-06T02:20:15;13.07;;;10.57;;
59271;SDS011;45043;51.068;7.026;2023-04-06T02:23:16;12.30;;;10.33;;
59271;SDS011;45043;51.068;7.026;2023-04-06T02:26:17;14.20;;;10.17;;
59271;SDS011;45043;51.068;7.026;2023-04-06T02:29:17;11.53;;;10.30;;
59271;SDS011;45043;51.068;7.026;2023-04-06T02:32:18;12.80;;;10.60;;
59271;SDS011;45043;51.068;7.026;2023-04-06T02:35:20;11.83;;;10.53;;
59271;SDS011;45043;51.068;7.026;2023-04-06T02:38:26;11.93;;;10.17;;
59271;SDS011;45043;51.068;7.026;2023-04-06T02:41:27;11.33;;;9.83;;
59271;SDS011;45043;51.068;7.026;2023-04-06T02:44:29;12.40;;;9.80;;
59271;SDS011;45043;51.068;7.026;2023-04-06T02:47:30;10.97;;;9.87;;
59271;SDS011;45043;51.068;7.026;2023-04-06T02:50:30;12.17;;;10.03;;
59271;SDS011;45043;51.068;7.026;2023-04-06T02:53:35;10.93;;;9.50;;
59271;SDS011;45043;51.068;7.026;2023-04-06T02:56:36;12.70;;;10.40;;
59271;SDS011;45043;51.068;7.026;2023-04-06T02:59:37;11.73;;;10.53;;
59271;SDS011;45043;51.068;7.026;2023-04-06T03:02:45;12.63;;;10.73;;
59271;SDS011;45043;51.068;7.026;2023-04-06T03:05:49;11.97;;;10.57;;
59271;SDS011;45043;51.068;7.026;2023-04-06T03:08:57;11.37;;;10.17;;
59271;SDS011;45043;51.068;7.026;2023-04-06T03:11:58;11.60;;;10.43;;
59271;SDS011;45043;51.068;7.026;2023-04-06T03:15:01;11.33;;;10.23;;
59271;SDS011;45043;51.068;7.026;2023-04-06T03:18:02;12.37;;;11.17;;
59271;SDS011;45043;51.068;7.026;2023-04-06T03:21:16;11.37;;;9.93;;
59271;SDS011;45043;51.068;7.026;2023-04-06T03:24:25;14.60;;;10.77;;
59271;SDS011;45043;51.068;7.026;2023-04-06T03:27:26;13.73;;;10.67;;
59271;SDS011;45043;51.068;7.026;2023-04-06T03:30:28;11.37;;;10.17;;
59271;SDS011;45043;51.068;7.026;2023-04-06T03:33:29;10.60;;;9.50;;
59271;SDS011;45043;51.068;7.026;2023-04-06T03:36:30;11.67;;;10.47;;
59271;SDS011;45043;51.068;7.026;2023-04-06T03:39:32;12.27;;;10.13;;
59271;SDS011;45043;51.068;7.026;2023-04-06T03:42:33;11.73;;;9.90;;
59271;SDS011;45043;51.068;7.026;2023-04-06T03:45:40;11.57;;;10.10;;
59271;SDS011;45043;51.068;7.026;2023-04-06T03:48:41;11.27;;;10.00;;
59271;SDS011;45043;51.068;7.026;2023-04-06T03:51:42;11.50;;;10.30;;
59271;SDS011;45043;51.068;7.026;2023-04-06T03:54:42;11.87;;;10.67;;
59271;SDS011;45043;51.068;7.026;2023-04-06T03:57:44;12.10;;;9.77;;
59271;SDS011;45043;51.068;7.026;2023-04-06T04:00:45;11.73;;;10.53;;
59271;SDS011;45043;51.068;7.026;2023-04-06T04:03:45;11.17;;;10.07;;
59271;SDS011;45043;51.068;7.026;2023-04-06T04:06:48;12.90;;;9.57;;
59271;SDS011;45043;51.068;7.026;2023-04-06T04:09:48;11.50;;;10.30;;
59271;SDS011;45043;51.068;7.026;2023-04-06T04:12:49;11.53;;;10.33;;
59271;SDS011;45043;51.068;7.026;2023-04-06T04:15:49;10.73;;;9.63;;
59271;SDS011;45043;51.068;7.026;2023-04-06T04:18:50;10.60;;;8.93;;
59271;SDS011;45043;51.068;7.026;2023-04-06T04:21:50;10.57;;;9.47;;
59271;SDS011;45043;51.068;7.026;2023-04-06T04:24:57;12.77;;;9.23;;
59271;SDS011;45043;51.068;7.026;2023-04-06T04:27:59;9.07;;;8.17;;
59271;SDS011;45043;51.068;7.026;2023-04-06T04:31:00;9.80;;;8.80;;
59271;SDS011;45043;51.068;7.026;2023-04-06T04:34:04;9.63;;;8.73;;
59271;SDS011;45043;51.068;7.026;2023-04-06T04:37:07;12.33;;;9.40;;
59271;SDS011;45043;51.068;7.026;2023-04-06T04:40:29;9.73;;;8.73;;
59271;SDS011;45043;51.068;7.026;2023-04-06T04:43:38;10.30;;;8.50;;
59271;SDS011;45043;51.068;7.026;2023-04-06T04:46:40;10.73;;;9.03;;
59271;SDS011;45043;51.068;7.026;2023-04-06T04:49:44;10.23;;;9.03;;
59271;SDS011;45043;51.068;7.026;2023-04-06T04:52:48;12.50;;;9.17;;
59271;SDS011;45043;51.068;7.026;2023-04-06T04:55:54;11.23;;;9.20;;
59271;SDS011;45043;51.068;7.026;2023-04-06T04:58:54;9.30;;;8.40;;
59271;SDS011;45043;51.068;7.026;2023-04-06T05:01:55;13.80;;;8.63;;
59271;SDS011;45043;51.068;7.026;2023-04-06T05:05:04;11.13;;;8.63;;
59271;SDS011;45043;51.068;7.026;2023-04-06T05:08:05;9.30;;;8.10;;
59271;SDS011;45043;51.068;7.026;2023-04-06T05:11:18;10.10;;;7.77;;
59271;SDS011;45043;51.068;7.026;2023-04-06T05:14:27;10.03;;;8.43;;
59271;SDS011;45043;51.068;7.026;2023-04-06T05:17:29;8.83;;;7.93;;
59271;SDS011;45043;51.068;7.026;2023-04-06T05:20:30;11.20;;;8.53;;
59271;SDS011;45043;51.068;7.026;2023-04-06T05:23:32;9.53;;;8.53;;
59271;SDS011;45043;51.068;7.026;2023-04-06T05:26:35;8.73;;;7.83;;
59271;SDS011;45043;51.068;7.026;2023-04-06T05:29:42;9.70;;;8.70;;
59271;SDS011;45043;51.068;7.026;2023-04-06T05:32:43;9.37;;;8.23;;
59271;SDS011;45043;51.068;7.026;2023-04-06T05:35:44;10.00;;;8.67;;
59271;SDS011;45043;51.068;7.026;2023-04-06T05:38:47;9.17;;;8.27;;
59271;SDS011;45043;51.068;7.026;2023-04-06T05:42:07;11.63;;;8.73;;
59271;SDS011;45043;51.068;7.026;2023-04-06T05:45:22;9.20;;;8.30;;
59271;SDS011;45043;51.068;7.026;2023-04-06T05:48:27;9.63;;;8.63;;
59271;SDS011;45043;51.068;7.026;2023-04-06T05:51:28;10.17;;;8.67;;
59271;SDS011;45043;51.068;7.026;2023-04-06T05:54:28;9.73;;;8.70;;
59271;SDS011;45043;51.068;7.026;2023-04-06T05:57:34;14.63;;;8.93;;
59271;SDS011;45043;51.068;7.026;2023-04-06T06:00:36;9.33;;;8.43;;
59271;SDS011;45043;51.068;7.026;2023-04-06T06:03:41;9.70;;;8.37;;
59271;SDS011;45043;51.068;7.026;2023-04-06T06:06:42;11.10;;;8.97;;
59271;SDS011;45043;51.068;7.026;2023-04-06T06:09:52;9.00;;;8.20;;
59271;SDS011;45043;51.068;7.026;2023-04-06T06:12:59;10.70;;;8.87;;
59271;SDS011;45043;51.068;7.026;2023-04-06T06:16:01;9.90;;;8.23;;
59271;SDS011;45043;51.068;7.026;2023-04-06T06:19:06;10.47;;;8.53;;
59271;SDS011;45043;51.068;7.026;2023-04-06T06:22:07;9.17;;;8.20;;
59271;SDS011;45043;51.068;7.026;2023-04-06T06:25:11;10.13;;;8.67;;
59271;SDS011;45043;51.068;7.026;2023-04-06T06:28:12;8.87;;;8.07;;
59271;SDS011;45043;51.068;7.026;2023-04-06T06:31:13;10.10;;;8.13;;
59271;SDS011;45043;51.068;7.026;2023-04-06T06:34:16;10.30;;;8.17;;
59271;SDS011;45043;51.068;7.026;2023-04-06T06:37:17;9.30;;;8.40;;
59271;SDS011;45043;51.068;7.026;2023-04-06T06:40:17;10.97;;;8.43;;
59271;SDS011;45043;51.068;7.026;2023-04-06T06:43:20;10.07;;;9.10;;
59271;SDS011;45043;51.068;7.026;2023-04-06T06:46:26;8.60;;;7.77;;
59271;SDS011;45043;51.068;7.026;2023-04-06T06:49:27;9.00;;;7.90;;
59271;SDS011;45043;51.068;7.026;2023-04-06T06:52:27;9.53;;;8.70;;
59271;SDS011;45043;51.068;7.026;2023-04-06T06:55:28;12.00;;;8.00;;
59271;SDS011;45043;51.068;7.026;2023-04-06T06:58:29;10.90;;;8.23;;
59271;SDS011;45043;51.068;7.026;2023-04-06T07:01:31;9.53;;;8.13;;
59271;SDS011;45043;51.068;7.026;2023-04-06T07:04:33;12.23;;;8.43;;
59271;SDS011;45043;51.068;7.026;2023-04-06T07:07:34;9.13;;;8.13;;
59271;SDS011;45043;51.068;7.026;2023-04-06T07:10:35;9.57;;;8.67;;
59271;SDS011;45043;51.068;7.026;2023-04-06T07:13:35;10.43;;;8.73;;
59271;SDS011;45043;51.068;7.026;2023-04-06T07:16:36;10.90;;;8.20;;
59271;SDS011;45043;51.068;7.026;2023-04-06T07:19:38;11.30;;;8.23;;
59271;SDS011;45043;51.068;7.026;2023-04-06T07:22:40;8.77;;;7.87;;
59271;SDS011;45043;51.068;7.026;2023-04-06T07:25:42;10.53;;;9.33;;
59271;SDS011;45043;51.068;7.026;2023-04-06T07:28:43;11.43;;;9.07;;
59271;SDS011;45043;51.068;7.026;2023-04-06T07:31:46;18.23;;;10.73;;
59271;SDS011;45043;51.068;7.026;2023-04-06T07:34:47;12.77;;;8.70;;
59271;SDS011;45043;51.068;7.026;2023-04-06T07:37:47;14.03;;;8.20;;
59271;SDS011;45043;51.068;7.026;2023-04-06T07:40:48;9.47;;;7.57;;
59271;SDS011;45043;51.068;7.026;2023-04-06T07:43:48;11.30;;;8.33;;
59271;SDS011;45043;51.068;7.026;2023-04-06T07:46:50;13.73;;;7.70;;
59271;SDS011;45043;51.068;7.026;2023-04-06T07:49:54;9.37;;;8.37;;
59271;SDS011;45043;51.068;7.026;2023-04-06T07:52:56;12.80;;;7.60;;
59271;SDS011;45043;51.068;7.026;2023-04-06T07:55:58;11.33;;;8.70;;
59271;SDS011;45043;51.068;7.026;2023-04-06T07:58:58;12.53;;;8.23;;
59271;SDS011;45043;51.068;7.026;2023-04-06T08:01:59;10.17;;;9.00;;
59271;SDS011;45043;51.068;7.026;2023-04-06T08:05:00;11.00;;;9.00;;
59271;SDS011;45043;51.068;7.026;2023-04-06T08:08:01;10.30;;;7.83;;
59271;SDS011;45043;51.068;7.026;2023-04-06T08:11:01;10.17;;;8.77;;
59271;SDS011;45043;51.068;7.026;2023-04-06T08:14:02;10.97;;;9.30;;
59271;SDS011;45043;51.068;7.026;2023-04-06T08:17:03;10.87;;;8.63;;
59271;SDS011;45043;51.068;7.026;2023-04-06T08:20:04;13.27;;;9.50;;
59271;SDS011;45043;51.068;7.026;2023-04-06T08:23:05;12.97;;;10.00;;
59271;SDS011;45043;51.068;7.026;2023-04-06T08:26:06;11.27;;;8.50;;
59271;SDS011;45043;51.068;7.026;2023-04-06T08:29:07;14.30;;;9.37;;
59271;SDS011;45043;51.068;7.026;2023-04-06T08:32:07;9.80;;;8.10;;
59271;SDS011;45043;51.068;7.026;2023-04-06T08:35:08;13.00;;;9.97;;
59271;SDS011;45043;51.068;7.026;2023-04-06T08:38:09;15.23;;;10.27;;
59271;SDS011;45043;51.068;7.026;2023-04-06T08:41:10;11.53;;;9.00;;
59271;SDS011;45043;51.068;7.026;2023-04-06T08:44:11;15.20;;;8.40;;
59271;SDS011;45043;51.068;7.026;2023-04-06T08:47:12;11.33;;;10.03;;
59271;SDS011;45043;51.068;7.026;2023-04-06T08:50:13;12.53;;;9.00;;
59271;SDS011;45043;51.068;7.026;2023-04-06T08:53:16;11.37;;;10.17;;
59271;SDS011;45043;51.068;7.026;2023-04-06T08:56:17;10.40;;;8.60;;
59271;SDS011;45043;51.068;7.026;2023-04-06T08:59:18;11.43;;;9.40;;
59271;SDS011;45043;51.068;7.026;2023-04-06T09:02:19;11.97;;;9.60;;
59271;SDS011;45043;51.068;7.026;2023-04-06T09:05:20;13.80;;;11.00;;
59271;SDS011;45043;51.068;7.026;2023-04-06T09:08:22;12.97;;;10.23;;
59271;SDS011;45043;51.068;7.026;2023-04-06T09:11:22;12.83;;;10.60;;
59271;SDS011;45043;51.068;7.026;2023-04-06T09:14:36;13.53;;;10.13;;
59271;SDS011;45043;51.068;7.026;2023-04-06T09:17:37;13.23;;;10.70;;
59271;SDS011;45043;51.068;7.026;2023-04-06T09:20:38;13.37;;;9.87;;
59271;SDS011;45043;51.068;7.026;2023-04-06T09:23:39;15.67;;;10.50;;
59271;SDS011;45043;51.068;7.026;2023-04-06T09:26:46;13.10;;;11.17;;
59271;SDS011;45043;51.068;7.026;2023-04-06T09:29:47;14.13;;;10.63;;
59271;SDS011;45043;51.068;7.026;2023-04-06T09:32:53;13.23;;;10.50;;
59271;SDS011;45043;51.068;7.026;2023-04-06T09:35:59;12.03;;;9.93;;
59271;SDS011;45043;51.068;7.026;2023-04-06T09:39:03;12.93;;;10.73;;
59271;SDS011;45043;51.068;7.026;2023-04-06T09:42:05;13.27;;;9.83;;
59271;SDS011;45043;51.068;7.026;2023-04-06T09:45:06;13.30;;;9.87;;
59271;SDS011;45043;51.068;7.026;2023-04-06T09:48:07;17.43;;;10.17;;
59271;SDS011;45043;51.068;7.026;2023-04-06T09:51:07;12.57;;;10.30;;
59271;SDS011;45043;51.068;7.026;2023-04-06T09:54:15;13.83;;;11.03;;
59271;SDS011;45043;51.068;7.026;2023-04-06T10:00:44;14.57;;;10.80;;
59271;SDS011;45043;51.068;7.026;2023-04-06T10:04:01;13.67;;;10.13;;
59271;SDS011;45043;51.068;7.026;2023-04-06T10:07:13;16.23;;;12.27;;
59271;SDS011;45043;51.068;7.026;2023-04-06T10:10:15;15.47;;;10.67;;
59271;SDS011;45043;51.068;7.026;2023-04-06T10:13:16;15.23;;;11.77;;
59271;SDS011;45043;51.068;7.026;2023-04-06T10:16:19;17.57;;;12.50;;
59271;SDS011;45043;51.068;7.026;2023-04-06T10:19:24;16.33;;;12.07;;
59271;SDS011;45043;51.068;7.026;2023-04-06T10:26:15;15.80;;;12.20;;
59271;SDS011;45043;51.068;7.026;2023-04-06T10:29:20;20.67;;;12.40;;
59271;SDS011;45043;51.068;7.026;2023-04-06T10:32:31;17.33;;;13.23;;
59271;SDS011;45043;51.068;7.026;2023-04-06T10:35:38;17.80;;;12.20;;
59271;SDS011;45043;51.068;7.026;2023-04-06T10:38:39;16.63;;;13.20;;
59271;SDS011;45043;51.068;7.026;2023-04-06T10:41:42;16.20;;;12.90;;
59271;SDS011;45043;51.068;7.026;2023-04-06T10:44:44;16.57;;;12.83;;
59271;SDS011;45043;51.068;7.026;2023-04-06T10:47:45;17.27;;;12.77;;
59271;SDS011;45043;51.068;7.026;2023-04-06T10:50:50;18.20;;;13.10;;
59271;SDS011;45043;51.068;7.026;2023-04-06T10:53:52;17.13;;;12.67;;
59271;SDS011;45043;51.068;7.026;2023-04-06T10:56:53;16.93;;;13.13;;
59271;SDS011;45043;51.068;7.026;2023-04-06T10:59:53;17.63;;;12.97;;
59271;SDS011;45043;51.068;7.026;2023-04-06T11:03:00;17.93;;;12.83;;
59271;SDS011;45043;51.068;7.026;2023-04-06T11:06:01;17.33;;;13.33;;
59271;SDS011;45043;51.068;7.026;2023-04-06T11:09:02;15.13;;;11.70;;
59271;SDS011;45043;51.068;7.026;2023-04-06T11:12:03;15.43;;;11.77;;
59271;SDS011;45043;51.068;7.026;2023-04-06T11:15:04;16.23;;;12.20;;
59271;SDS011;45043;51.068;7.026;2023-04-06T11:18:05;18.27;;;13.07;;
59271;SDS011;45043;51.068;7.026;2023-04-06T11:21:06;15.97;;;11.83;;
59271;SDS011;45043;51.068;7.026;2023-04-06T11:24:10;17.77;;;12.97;;
59271;SDS011;45043;51.068;7.026;2023-04-06T11:27:11;17.07;;;12.63;;
59271;SDS011;45043;51.068;7.026;2023-04-06T11:30:12;18.80;;;13.60;;
59271;SDS011;45043;51.068;7.026;2023-04-06T11:33:20;17.17;;;13.50;;
59271;SDS011;45043;51.068;7.026;2023-04-06T11:36:22;16.73;;;13.10;;
59271;SDS011;45043;51.068;7.026;2023-04-06T11:39:23;16.50;;;12.00;;
59271;SDS011;45043;51.068;7.026;2023-04-06T11:42:28;18.77;;;14.23;;
59271;SDS011;45043;51.068;7.026;2023-04-06T11:45:39;16.90;;;13.07;;
59271;SDS011;45043;51.068;7.026;2023-04-06T11:48:44;15.90;;;12.53;;
59271;SDS011;45043;51.068;7.026;2023-04-06T11:51:46;18.53;;;13.03;;
59271;SDS011;45043;51.068;7.026;2023-04-06T11:54:47;19.70;;;15.43;;
59271;SDS011;45043;51.068;7.026;2023-04-06T11:57:48;15.63;;;12.67;;
59271;SDS011;45043;51.068;7.026;2023-04-06T12:00:50;16.77;;;12.00;;
59271;SDS011;45043;51.068;7.026;2023-04-06T12:03:51;16.47;;;12.80;;
59271;SDS011;45043;51.068;7.026;2023-04-06T12:06:52;17.57;;;12.63;;
59271;SDS011;45043;51.068;7.026;2023-04-06T12:09:53;17.87;;;13.03;;
59271;SDS011;45043;51.068;7.026;2023-04-06T12:12:53;17.10;;;12.30;;
59271;SDS011;45043;51.068;7.026;2023-04-06T12:15:54;17.97;;;13.63;;
59271;SDS011;45043;51.068;7.026;2023-04-06T12:18:54;17.47;;;13.03;;
59271;SDS011;45043;51.068;7.026;2023-04-06T12:21:56;18.73;;;13.37;;
59271;SDS011;45043;51.068;7.026;2023-04-06T12:24:58;19.53;;;13.43;;
59271;SDS011;45043;51.068;7.026;2023-04-06T12:27:58;19.37;;;12.27;;
59271;SDS011;45043;51.068;7.026;2023-04-06T12:30:59;15.07;;;11.90;;
59271;SDS011;45043;51.068;7.026;2023-04-06T12:33:59;16.07;;;12.57;;
59271;SDS011;45043;51.068;7.026;2023-04-06T12:37:02;18.57;;;12.17;;
59271;SDS011;45043;51.068;7.026;2023-04-06T12:40:02;16.83;;;11.33;;
59271;SDS011;45043;51.068;7.026;2023-04-06T12:43:04;13.70;;;11.87;;
59271;SDS011;45043;51.068;7.026;2023-04-06T12:46:04;14.20;;;11.57;;
59271;SDS011;45043;51.068;7.026;2023-04-06T12:49:05;13.93;;;11.37;;
59271;SDS011;45043;51.068;7.026;2023-04-06T12:52:06;17.90;;;12.43;;
59271;SDS011;45043;51.068;7.026;2023-04-06T12:55:06;18.97;;;13.43;;
59271;SDS011;45043;51.068;7.026;2023-04-06T12:58:07;16.03;;;11.97;;
59271;SDS011;45043;51.068;7.026;2023-04-06T13:01:08;18.50;;;12.90;;
59271;SDS011;45043;51.068;7.026;2023-04-06T13:04:08;17.97;;;13.00;;
59271;SDS011;45043;51.068;7.026;2023-04-06T13:07:09;14.63;;;11.80;;
59271;SDS011;45043;51.068;7.026;2023-04-06T13:10:09;17.07;;;12.30;;
59271;SDS011;45043;51.068;7.026;2023-04-06T13:13:10;15.70;;;12.07;;
59271;SDS011;45043;51.068;7.026;2023-04-06T13:16:10;18.60;;;13.33;;
59271;SDS011;45043;51.068;7.026;2023-04-06T13:19:11;16.00;;;11.60;;
59271;SDS011;45043;51.068;7.026;2023-04-06T13:22:11;14.27;;;11.40;;
59271;SDS011;45043;51.068;7.026;2023-04-06T13:25:12;14.07;;;10.83;;
59271;SDS011;45043;51.068;7.026;2023-04-06T13:28:12;14.33;;;10.53;;
59271;SDS011;45043;51.068;7.026;2023-04-06T13:31:13;12.50;;;10.80;;
59271;SDS011;45043;51.068;7.026;2023-04-06T13:34:14;14.03;;;10.27;;
59271;SDS011;45043;51.068;7.026;2023-04-06T13:37:15;11.47;;;9.53;;
59271;SDS011;45043;51.068;7.026;2023-04-06T13:40:16;13.17;;;8.90;;
59271;SDS011;45043;51.068;7.026;2023-04-06T13:43:16;10.43;;;8.63;;
59271;SDS011;45043;51.068;7.026;2023-04-06T13:46:19;12.07;;;8.33;;
59271;SDS011;45043;51.068;7.026;2023-04-06T13:49:20;10.47;;;8.50;;
59271;SDS011;45043;51.068;7.026;2023-04-06T13:52:20;9.77;;;8.43;;
59271;SDS011;45043;51.068;7.026;2023-04-06T13:55:21;11.93;;;8.67;;
59271;SDS011;45043;51.068;7.026;2023-04-06T13:58:24;10.27;;;8.30;;
59271;SDS011;45043;51.068;7.026;2023-04-06T14:01:24;10.40;;;8.73;;
59271;SDS011;45043;51.068;7.026;2023-04-06T14:04:26;11.53;;;9.77;;
59271;SDS011;45043;51.068;7.026;2023-04-06T14:07:27;11.93;;;8.83;;
59271;SDS011;45043;51.068;7.026;2023-04-06T14:10:27;11.17;;;7.93;;
59271;SDS011;45043;51.068;7.026;2023-04-06T14:13:28;12.50;;;9.50;;
59271;SDS011;45043;51.068;7.026;2023-04-06T14:16:28;15.47;;;8.97;;
59271;SDS011;45043;51.068;7.026;2023-04-06T14:19:28;11.33;;;9.40;;
59271;SDS011;45043;51.068;7.026;2023-04-06T14:22:29;14.17;;;9.67;;
59271;SDS011;45043;51.068;7.026;2023-04-06T14:25:29;14.23;;;9.00;;
59271;SDS011;45043;51.068;7.026;2023-04-06T14:28:32;10.57;;;8.90;;
59271;SDS011;45043;51.068;7.026;2023-04-06T14:31:33;11.07;;;8.13;;
59271;SDS011;45043;51.068;7.026;2023-04-06T14:34:36;9.40;;;7.63;;
59271;SDS011;45043;51.068;7.026;2023-04-06T14:37:37;11.50;;;8.00;;
59271;SDS011;45043;51.068;7.026;2023-04-06T14:40:37;11.50;;;8.93;;
59271;SDS011;45043;51.068;7.026;2023-04-06T14:43:38;11.73;;;8.63;;
59271;SDS011;45043;51.068;7.026;2023-04-06T14:46:38;9.73;;;7.40;;
59271;SDS011;45043;51.068;7.026;2023-04-06T14:49:39;8.80;;;7.77;;
59271;SDS011;45043;51.068;7.026;2023-04-06T14:52:40;8.93;;;6.83;;
59271;SDS011;45043;51.068;7.026;2023-04-06T14:55:40;11.40;;;7.43;;
59271;SDS011;45043;51.068;7.026;2023-04-06T14:58:41;8.40;;;6.67;;
59271;SDS011;45043;51.068;7.026;2023-04-06T15:01:42;8.57;;;7.33;;
59271;SDS011;45043;51.068;7.026;2023-04-06T15:04:42;8.77;;;6.50;;
59271;SDS011;45043;51.068;7.026;2023-04-06T15:07:42;8.83;;;7.17;;
59271;SDS011;45043;51.068;7.026;2023-04-06T15:10:43;8.03;;;6.40;;
59271;SDS011;45043;51.068;7.026;2023-04-06T15:13:43;8.30;;;7.30;;
59271;SDS011;45043;51.068;7.026;2023-04-06T15:16:44;7.53;;;6.80;;
59271;SDS011;45043;51.068;7.026;2023-04-06T15:19:44;7.43;;;6.63;;
59271;SDS011;45043;51.068;7.026;2023-04-06T15:22:45;8.60;;;7.63;;
59271;SDS011;45043;51.068;7.026;2023-04-06T15:25:46;9.53;;;8.53;;
59271;SDS011;45043;51.068;7.026;2023-04-06T15:28:47;10.50;;;7.70;;
59271;SDS011;45043;51.068;7.026;2023-04-06T15:31:47;8.53;;;6.70;;
59271;SDS011;45043;51.068;7.026;2023-04-06T15:34:48;7.57;;;6.47;;
59271;SDS011;45043;51.068;7.026;2023-04-06T15:37:48;7.10;;;6.40;;
59271;SDS011;45043;51.068;7.026;2023-04-06T15:40:49;5.70;;;5.20;;
59271;SDS011;45043;51.068;7.026;2023-04-06T15:43:49;7.13;;;6.47;;
59271;SDS011;45043;51.068;7.026;2023-04-06T15:46:50;6.73;;;6.03;;
59271;SDS011;45043;51.068;7.026;2023-04-06T15:49:52;6.40;;;5.80;;
59271;SDS011;45043;51.068;7.026;2023-04-06T15:52:52;7.43;;;5.70;;
59271;SDS011;45043;51.068;7.026;2023-04-06T15:56:03;6.97;;;6.27;;
59271;SDS011;45043;51.068;7.026;2023-04-06T15:59:06;7.03;;;6.33;;
59271;SDS011;45043;51.068;7.026;2023-04-06T16:02:07;7.63;;;6.60;;
59271;SDS011;45043;51.068;7.026;2023-04-06T16:05:08;6.20;;;5.60;;
59271;SDS011;45043;51.068;7.026;2023-04-06T16:08:09;6.80;;;6.20;;
59271;SDS011;45043;51.068;7.026;2023-04-06T16:11:10;7.27;;;6.53;;
59271;SDS011;45043;51.068;7.026;2023-04-06T16:14:11;7.77;;;7.00;;
59271;SDS011;45043;51.068;7.026;2023-04-06T16:17:12;7.80;;;7.10;;
59271;SDS011;45043;51.068;7.026;2023-04-06T16:20:12;7.67;;;6.93;;
59271;SDS011;45043;51.068;7.026;2023-04-06T16:23:14;7.47;;;6.77;;
59271;SDS011;45043;51.068;7.026;2023-04-06T16:26:16;8.40;;;6.50;;
59271;SDS011;45043;51.068;7.026;2023-04-06T16:29:20;7.93;;;7.13;;
59271;SDS011;45043;51.068;7.026;2023-04-06T16:32:22;10.10;;;7.50;;
59271;SDS011;45043;51.068;7.026;2023-04-06T16:35:22;8.90;;;8.00;;
59271;SDS011;45043;51.068;7.026;2023-04-06T16:38:23;9.17;;;7.83;;
59271;SDS011;45043;51.068;7.026;2023-04-06T16:41:25;8.60;;;7.67;;
59271;SDS011;45043;51.068;7.026;2023-04-06T16:44:27;9.70;;;8.70;;
59271;SDS011;45043;51.068;7.026;2023-04-06T16:47:27;10.07;;;8.57;;
59271;SDS011;45043;51.068;7.026;2023-04-06T16:50:28;10.40;;;8.97;;
59271;SDS011;45043;51.068;7.026;2023-04-06T16:53:28;10.33;;;9.23;;
59271;SDS011;45043;51.068;7.026;2023-04-06T16:56:29;11.53;;;10.20;;
59271;SDS011;45043;51.068;7.026;2023-04-06T16:59:31;13.37;;;10.37;;
59271;SDS011;45043;51.068;7.026;2023-04-06T17:02:31;12.13;;;10.83;;
59271;SDS011;45043;51.068;7.026;2023-04-06T17:05:35;12.87;;;11.57;;
59271;SDS011;45043;51.068;7.026;2023-04-06T17:08:35;12.93;;;10.60;;
59271;SDS011;45043;51.068;7.026;2023-04-06T17:11:36;13.27;;;11.63;;
59271;SDS011;45043;51.068;7.026;2023-04-06T17:14:37;11.60;;;10.43;;
59271;SDS011;45043;51.068;7.026;2023-04-06T17:17:37;11.57;;;10.37;;
59271;SDS011;45043;51.068;7.026;2023-04-06T17:20:38;12.50;;;11.20;;
59271;SDS011;45043;51.068;7.026;2023-04-06T17:23:39;13.90;;;10.73;;
59271;SDS011;45043;51.068;7.026;2023-04-06T17:26:39;13.07;;;10.43;;
59271;SDS011;45043;51.068;7.026;2023-04-06T17:29:40;11.93;;;10.73;;
59271;SDS011;45043;51.068;7.026;2023-04-06T17:32:40;11.90;;;10.40;;
59271;SDS011;45043;51.068;7.026;2023-04-06T17:35:41;12.93;;;11.30;;
59271;SDS011;45043;51.068;7.026;2023-04-06T17:38:42;11.77;;;10.33;;
59271;SDS011;45043;51.068;7.026;2023-04-06T17:41:43;13.60;;;11.23;;
59271;SDS011;45043;51.068;7.026;2023-04-06T17:44:43;12.60;;;10.20;;
59271;SDS011;45043;51.068;7.026;2023-04-06T17:47:46;11.60;;;10.07;;
59271;SDS011;45043;51.068;7.026;2023-04-06T17:50:46;12.43;;;11.23;;
59271;SDS011;45043;51.068;7.026;2023-04-06T17:53:47;13.07;;;10.97;;
59271;SDS011;45043;51.068;7.026;2023-04-06T17:56:50;12.20;;;10.37;;
59271;SDS011;45043;51.068;7.026;2023-04-06T17:59:52;12.90;;;11.03;;
59271;SDS011;45043;51.068;7.026;2023-04-06T18:02:56;12.90;;;11.10;;
59271;SDS011;45043;51.068;7.026;2023-04-06T18:05:56;12.33;;;11.00;;